Time;durP1;ratioP1;P1;durP2;ratioP2;P2;SDS_P1;SDS_P2;PMS_P1;PMS_P2;Temp;Humidity;BMP_temperature;BMP_pressure;BME280_temperature;BME280_humidity;BME280_pressure;Samples;Min_cycle;Max_cycle;Signal;HPM_P1;HPM_P2
2020/12/09 00:01:29;;;;;;;55.65;27.45;;;2.80;99.90;;;;;;5097268;28;20183;-58
2020/12/09 00:03:56;;;;;;;55.40;26.38;;;2.80;99.90;;;;;;5097550;28;20182;-58
2020/12/09 00:06:22;;;;;;;51.47;23.35;;;2.80;99.90;;;;;;5097522;28;20171;-58
2020/12/09 00:08:47;;;;;;;54.95;25.35;;;2.80;99.90;;;;;;5097122;28;20174;-58
2020/12/09 00:11:13;;;;;;;52.33;26.40;;;2.80;99.90;;;;;;5097140;28;20167;-58
2020/12/09 00:13:38;;;;;;;53.10;26.25;;;2.80;99.90;;;;;;5097057;28;20603;-57
2020/12/09 00:16:04;;;;;;;54.17;25.52;;;2.80;99.90;;;;;;5097277;28;20626;-58
2020/12/09 00:18:30;;;;;;;53.13;25.10;;;2.80;99.90;;;;;;5096962;28;20167;-58
2020/12/09 00:20:55;;;;;;;51.30;26.98;;;2.80;99.90;;;;;;5097268;28;20187;-58
2020/12/09 00:23:21;;;;;;;50.83;23.45;;;2.80;99.90;;;;;;5096859;28;20280;-58
2020/12/09 00:25:46;;;;;;;56.97;26.33;;;2.80;99.90;;;;;;5096870;28;20179;-58
2020/12/09 00:28:12;;;;;;;49.50;24.70;;;2.80;99.90;;;;;;5095822;28;20168;-57
2020/12/09 00:30:37;;;;;;;54.22;26.10;;;2.80;99.90;;;;;;5097140;28;20175;-58
2020/12/09 00:33:03;;;;;;;51.75;25.40;;;2.70;99.90;;;;;;5096734;28;20305;-58
2020/12/09 00:35:28;;;;;;;56.17;26.65;;;2.70;99.90;;;;;;5096991;28;20203;-58
2020/12/09 00:37:54;;;;;;;62.03;28.25;;;2.70;99.90;;;;;;5096847;28;20195;-58
2020/12/09 00:40:20;;;;;;;56.38;26.13;;;2.70;99.90;;;;;;5096892;28;20195;-59
2020/12/09 00:42:45;;;;;;;54.60;25.13;;;2.70;99.90;;;;;;5096701;28;20155;-58
2020/12/09 00:45:11;;;;;;;54.35;26.33;;;2.60;99.90;;;;;;5096510;28;20233;-58
2020/12/09 00:47:40;;;;;;;51.67;25.23;;;2.60;99.90;;;;;;5096723;28;20148;-58
2020/12/09 00:52:38;;;;;;;56.65;26.55;;;2.60;99.90;;;;;;5096406;28;20140;-58
2020/12/09 00:55:04;;;;;;;58.75;27.30;;;2.60;99.90;;;;;;5098516;28;20164;-58
2020/12/09 00:57:29;;;;;;;55.65;27.73;;;2.60;99.90;;;;;;5099641;28;20163;-58
2020/12/09 00:59:55;;;;;;;53.03;25.52;;;2.60;99.90;;;;;;5103372;28;20227;-58
2020/12/09 01:02:20;;;;;;;51.90;24.95;;;2.60;99.90;;;;;;5101395;28;20264;-58
2020/12/09 01:04:49;;;;;;;51.88;25.23;;;2.60;99.90;;;;;;5104060;28;20168;-58
2020/12/09 01:07:19;;;;;;;55.80;25.10;;;2.50;99.90;;;;;;5103645;28;20167;-58
2020/12/09 01:09:45;;;;;;;57.17;25.08;;;2.50;99.90;;;;;;5107260;28;20160;-58
2020/12/09 01:12:11;;;;;;;52.17;23.92;;;2.50;99.90;;;;;;5109591;28;20174;-58
2020/12/09 01:14:36;;;;;;;56.05;26.35;;;2.50;99.90;;;;;;5098381;28;20254;-58
2020/12/09 01:17:02;;;;;;;52.22;24.70;;;2.50;99.90;;;;;;5094974;28;20611;-58
2020/12/09 01:19:27;;;;;;;48.88;24.83;;;2.50;99.90;;;;;;5095901;28;20164;-58
2020/12/09 01:21:53;;;;;;;56.58;24.85;;;2.40;99.90;;;;;;5096151;28;20205;-58
2020/12/09 01:24:19;;;;;;;58.22;25.55;;;2.40;99.90;;;;;;5095818;28;20167;-58
2020/12/09 01:26:45;;;;;;;54.78;25.92;;;2.40;99.90;;;;;;5095766;28;20178;-57
2020/12/09 01:29:11;;;;;;;54.13;24.38;;;2.40;99.90;;;;;;5095705;28;20160;-58
2020/12/09 01:31:36;;;;;;;54.40;25.10;;;2.40;99.90;;;;;;5095402;28;20187;-58
2020/12/09 01:34:02;;;;;;;55.42;25.77;;;2.40;99.90;;;;;;5095732;28;20611;-58
2020/12/09 01:36:27;;;;;;;56.42;25.25;;;2.40;99.90;;;;;;5095648;28;20160;-58
2020/12/09 01:38:53;;;;;;;58.05;25.50;;;2.40;99.90;;;;;;5095338;28;20163;-58
2020/12/09 01:41:22;;;;;;;60.97;27.52;;;2.40;99.90;;;;;;5096276;28;20191;-58
2020/12/09 01:43:49;;;;;;;58.03;26.45;;;2.40;99.90;;;;;;5095370;28;20521;-58
2020/12/09 01:46:19;;;;;;;60.72;26.63;;;2.40;99.90;;;;;;5095336;28;20269;-58
2020/12/09 01:48:45;;;;;;;64.32;27.08;;;2.40;99.90;;;;;;5094632;28;20166;-58
2020/12/09 01:51:12;;;;;;;58.97;26.10;;;2.40;99.90;;;;;;5095688;28;20168;-58
2020/12/09 01:53:40;;;;;;;60.28;26.55;;;2.40;99.90;;;;;;5094710;28;20196;-58
2020/12/09 01:56:06;;;;;;;55.00;24.58;;;2.40;99.90;;;;;;5095846;28;20163;-58
2020/12/09 01:58:31;;;;;;;52.97;24.17;;;2.40;99.90;;;;;;5095200;28;20183;-58
2020/12/09 02:00:57;;;;;;;53.88;24.45;;;2.40;99.90;;;;;;5095154;28;20256;-58
2020/12/09 02:03:22;;;;;;;51.15;24.15;;;2.40;99.90;;;;;;5094297;28;20615;-58
2020/12/09 02:05:48;;;;;;;58.03;25.60;;;2.40;99.90;;;;;;5094311;28;20178;-58
2020/12/09 02:08:13;;;;;;;51.72;25.00;;;2.40;99.90;;;;;;5095332;28;20619;-59
2020/12/09 02:10:39;;;;;;;53.42;25.75;;;2.40;99.90;;;;;;5095383;28;20168;-58
2020/12/09 02:13:04;;;;;;;54.50;25.98;;;2.40;99.90;;;;;;5094995;28;20167;-58
2020/12/09 02:15:29;;;;;;;53.75;24.85;;;2.40;99.90;;;;;;5095216;28;20170;-58
2020/12/09 02:17:55;;;;;;;63.50;26.92;;;2.40;99.90;;;;;;5095193;28;20175;-58
2020/12/09 02:20:20;;;;;;;57.63;26.85;;;2.40;99.90;;;;;;5094830;28;20178;-58
2020/12/09 02:22:53;;;;;;;60.33;27.15;;;2.40;99.90;;;;;;5095009;28;20253;-58
2020/12/09 02:25:19;;;;;;;61.65;27.35;;;2.50;99.90;;;;;;5094207;28;20160;-58
2020/12/09 02:27:44;;;;;;;54.60;26.63;;;2.50;99.90;;;;;;5094891;28;20174;-58
2020/12/09 02:30:10;;;;;;;53.65;26.08;;;2.50;99.90;;;;;;5094942;28;20164;-59
2020/12/09 02:32:36;;;;;;;58.28;26.50;;;2.50;99.90;;;;;;5095419;28;20539;-59
2020/12/09 02:35:04;;;;;;;57.58;26.10;;;2.60;99.90;;;;;;5094937;28;20573;-59
2020/12/09 02:37:29;;;;;;;52.03;25.52;;;2.50;99.90;;;;;;5095084;28;20498;-59
2020/12/09 02:39:55;;;;;;;57.55;25.75;;;2.50;99.90;;;;;;5094707;28;20159;-59
2020/12/09 02:42:20;;;;;;;52.85;24.83;;;2.50;99.90;;;;;;5094735;28;20188;-59
2020/12/09 02:44:46;;;;;;;56.60;25.67;;;2.50;99.90;;;;;;5094567;28;20159;-59
2020/12/09 02:47:11;;;;;;;58.00;25.20;;;2.50;99.90;;;;;;5095088;28;20660;-59
2020/12/09 02:49:37;;;;;;;59.92;26.70;;;2.50;99.90;;;;;;5094604;28;20171;-59
2020/12/09 02:52:02;;;;;;;54.20;26.85;;;2.50;99.90;;;;;;5097024;28;20172;-59
2020/12/09 02:54:27;;;;;;;52.05;25.63;;;2.50;99.90;;;;;;5098934;28;20221;-59
2020/12/09 02:56:53;;;;;;;53.13;25.98;;;2.50;99.90;;;;;;5098735;28;20163;-59
2020/12/09 02:59:19;;;;;;;52.50;25.35;;;2.50;99.90;;;;;;5098621;28;20612;-59
2020/12/09 03:01:44;;;;;;;57.92;25.90;;;2.50;99.90;;;;;;5098519;28;20241;-59
2020/12/09 03:04:10;;;;;;;54.67;27.77;;;2.50;99.90;;;;;;5098481;28;20164;-59
2020/12/09 03:06:35;;;;;;;56.53;26.80;;;2.50;99.90;;;;;;5098797;28;20160;-59
2020/12/09 03:09:01;;;;;;;56.67;26.85;;;2.60;99.90;;;;;;5098622;28;20167;-59
2020/12/09 03:11:27;;;;;;;56.67;26.23;;;2.60;99.90;;;;;;5098753;28;20410;-59
2020/12/09 03:13:52;;;;;;;54.72;26.05;;;2.60;99.90;;;;;;5097399;28;20266;-59
2020/12/09 03:16:18;;;;;;;53.30;25.52;;;2.60;99.90;;;;;;5098368;28;20167;-58
2020/12/09 03:18:44;;;;;;;55.72;26.55;;;2.60;99.90;;;;;;5098315;28;20164;-58
2020/12/09 03:21:09;;;;;;;53.70;25.88;;;2.60;99.90;;;;;;5098331;28;20187;-57
2020/12/09 03:23:35;;;;;;;54.45;26.08;;;2.60;99.90;;;;;;5098461;28;20163;-58
2020/12/09 03:26:02;;;;;;;60.70;26.95;;;2.60;99.90;;;;;;5098312;28;20171;-58
2020/12/09 03:28:27;;;;;;;55.03;27.45;;;2.60;99.90;;;;;;5098370;28;20163;-59
2020/12/09 03:30:53;;;;;;;53.47;26.40;;;2.60;99.90;;;;;;5097998;28;20174;-59
2020/12/09 03:33:19;;;;;;;59.20;26.60;;;2.60;99.90;;;;;;5098294;28;20175;-59
2020/12/09 03:35:44;;;;;;;59.22;26.90;;;2.60;99.90;;;;;;5097934;28;20593;-59
2020/12/09 03:38:10;;;;;;;59.25;26.15;;;2.60;99.90;;;;;;5098144;28;20186;-59
2020/12/09 03:40:35;;;;;;;57.95;27.15;;;2.60;99.90;;;;;;5097648;28;20195;-59
2020/12/09 03:43:01;;;;;;;56.22;26.05;;;2.60;99.90;;;;;;5098089;28;20160;-59
2020/12/09 03:45:26;;;;;;;58.28;26.58;;;2.60;99.90;;;;;;5097844;28;20183;-59
2020/12/09 03:47:52;;;;;;;63.47;27.92;;;2.60;99.90;;;;;;5097770;28;20490;-59
2020/12/09 03:50:17;;;;;;;60.13;27.45;;;2.60;99.90;;;;;;5097816;28;20175;-59
2020/12/09 03:52:43;;;;;;;59.42;25.45;;;2.60;99.90;;;;;;5097620;28;20596;-59
2020/12/09 03:55:08;;;;;;;63.90;28.50;;;2.60;99.90;;;;;;5097434;28;20170;-59
2020/12/09 03:57:34;;;;;;;57.40;25.90;;;2.60;99.90;;;;;;5097587;28;20160;-59
2020/12/09 03:59:59;;;;;;;57.78;26.92;;;2.60;99.90;;;;;;5097453;28;20183;-59
2020/12/09 04:02:25;;;;;;;57.92;26.65;;;2.60;99.90;;;;;;5096822;28;20191;-59
2020/12/09 04:04:50;;;;;;;62.42;28.20;;;2.60;99.90;;;;;;5096757;28;20511;-59
2020/12/09 04:07:16;;;;;;;56.80;26.60;;;2.60;99.90;;;;;;5097915;28;20171;-59
2020/12/09 04:09:41;;;;;;;59.67;27.25;;;2.60;99.90;;;;;;5097487;28;20164;-59
2020/12/09 04:12:07;;;;;;;53.33;26.38;;;2.70;99.90;;;;;;5097357;28;20171;-59
2020/12/09 04:14:33;;;;;;;59.22;25.60;;;2.70;99.90;;;;;;5097652;28;20323;-59
2020/12/09 04:16:58;;;;;;;58.20;25.58;;;2.70;99.90;;;;;;5096592;28;20182;-59
2020/12/09 04:19:24;;;;;;;61.42;27.23;;;2.70;99.90;;;;;;5097388;28;20172;-59
2020/12/09 04:21:49;;;;;;;60.17;26.65;;;2.70;99.90;;;;;;5096889;28;20202;-59
2020/12/09 04:24:15;;;;;;;57.65;27.38;;;2.70;99.90;;;;;;5097578;28;20164;-59
2020/12/09 04:26:40;;;;;;;56.45;26.85;;;2.70;99.90;;;;;;5096932;28;20171;-59
2020/12/09 04:29:06;;;;;;;54.10;25.83;;;2.70;99.90;;;;;;5097008;28;20170;-59
2020/12/09 04:31:31;;;;;;;58.13;27.27;;;2.80;99.90;;;;;;5096768;28;20164;-59
2020/12/09 04:34:00;;;;;;;55.50;26.92;;;2.80;99.90;;;;;;5096851;28;20195;-59
2020/12/09 04:36:26;;;;;;;55.50;27.52;;;2.80;99.90;;;;;;5096707;28;20179;-59
2020/12/09 04:38:51;;;;;;;54.67;26.00;;;2.80;99.90;;;;;;5096722;28;20168;-59
2020/12/09 04:41:17;;;;;;;60.45;28.27;;;2.80;99.90;;;;;;5096568;28;20530;-59
2020/12/09 04:43:42;;;;;;;59.65;27.40;;;2.80;99.90;;;;;;5096891;28;20178;-59
2020/12/09 04:46:08;;;;;;;64.22;27.88;;;2.80;99.90;;;;;;5096421;28;20187;-59
2020/12/09 04:48:39;;;;;;;58.33;29.02;;;2.80;99.90;;;;;;5096777;28;20164;-59
2020/12/09 04:51:42;;;;;;;56.00;25.85;;;2.80;99.90;;;;;;5096667;28;20160;-59
2020/12/09 04:54:14;;;;;;;57.38;27.17;;;2.80;99.90;;;;;;5096434;28;20257;-59
2020/12/09 04:56:55;;;;;;;61.35;28.27;;;2.80;99.90;;;;;;5096578;28;20592;-59
2020/12/09 04:59:25;;;;;;;56.03;27.23;;;2.80;99.90;;;;;;5096313;28;20580;-59
2020/12/09 05:02:03;;;;;;;66.70;27.67;;;2.90;99.90;;;;;;5096307;28;20187;-59
2020/12/09 05:04:32;;;;;;;59.08;27.77;;;2.80;99.90;;;;;;5096408;28;20159;-60
2020/12/09 05:07:00;;;;;;;57.15;27.10;;;2.80;99.90;;;;;;5096263;28;20191;-59
2020/12/09 05:09:27;;;;;;;54.45;27.92;;;2.80;99.90;;;;;;5096670;28;20168;-59
2020/12/09 05:11:58;;;;;;;58.88;28.88;;;2.80;99.90;;;;;;5096636;28;20260;-59
2020/12/09 05:14:24;;;;;;;58.70;29.08;;;2.80;99.90;;;;;;5095835;28;20164;-59
2020/12/09 05:17:00;;;;;;;62.22;29.25;;;2.80;99.90;;;;;;5095217;28;20300;-59
2020/12/09 05:19:26;;;;;;;61.83;29.15;;;2.80;99.90;;;;;;5098476;28;20163;-60
2020/12/09 05:21:52;;;;;;;58.30;28.05;;;2.90;99.90;;;;;;5101301;28;20215;-59
2020/12/09 05:24:19;;;;;;;56.10;28.80;;;2.80;99.90;;;;;;5104617;28;20168;-59
2020/12/09 05:26:45;;;;;;;54.75;28.23;;;2.80;99.90;;;;;;5095761;28;20240;-59
2020/12/09 05:29:18;;;;;;;54.30;27.60;;;2.80;99.90;;;;;;5095945;28;20607;-59
2020/12/09 05:31:45;;;;;;;64.32;29.35;;;2.80;99.90;;;;;;5095595;28;20156;-58
2020/12/09 05:34:30;;;;;;;57.38;29.17;;;2.80;99.90;;;;;;5095823;28;20168;-59
2020/12/09 05:36:58;;;;;;;60.65;27.58;;;2.80;99.90;;;;;;5095677;28;20283;-59
2020/12/09 05:39:25;;;;;;;55.85;28.35;;;2.80;99.90;;;;;;5095964;28;20513;-59
2020/12/09 05:41:50;;;;;;;59.72;28.42;;;2.80;99.90;;;;;;5095381;28;20222;-59
2020/12/09 05:44:16;;;;;;;51.95;26.90;;;2.80;99.90;;;;;;5094609;28;20191;-60
2020/12/09 05:46:59;;;;;;;67.03;30.17;;;2.70;99.90;;;;;;5095260;28;20182;-59
2020/12/09 05:49:26;;;;;;;57.83;27.70;;;2.80;99.90;;;;;;5095623;28;20167;-60
2020/12/09 05:52:15;;;;;;;52.03;27.92;;;2.70;99.90;;;;;;5095368;28;20186;-58
2020/12/09 05:54:49;;;;;;;53.35;27.77;;;2.70;99.90;;;;;;5095593;28;20571;-58
2020/12/09 05:57:16;;;;;;;55.15;28.83;;;2.70;99.90;;;;;;5095097;28;20156;-59
2020/12/09 05:59:47;;;;;;;57.28;27.80;;;2.70;99.90;;;;;;5095881;28;20246;-59
2020/12/09 06:02:13;;;;;;;51.08;27.77;;;2.70;99.90;;;;;;5094983;28;20167;-59
2020/12/09 06:04:47;;;;;;;55.53;28.10;;;2.70;99.90;;;;;;5095313;28;20250;-58
2020/12/09 06:07:13;;;;;;;52.03;27.40;;;2.70;99.90;;;;;;5095225;28;20170;-59
2020/12/09 06:09:39;;;;;;;53.45;27.45;;;2.70;99.90;;;;;;5095853;28;20163;-58
2020/12/09 06:12:05;;;;;;;54.53;27.90;;;2.70;99.90;;;;;;5094282;28;20179;-58
2020/12/09 06:14:32;;;;;;;54.03;27.40;;;2.70;99.90;;;;;;5095004;28;20178;-58
2020/12/09 06:16:57;;;;;;;48.97;26.10;;;2.70;99.90;;;;;;5095152;28;20357;-58
2020/12/09 06:19:23;;;;;;;55.67;29.05;;;2.70;99.90;;;;;;5095178;28;20500;-59
2020/12/09 06:21:56;;;;;;;53.08;28.27;;;2.70;99.90;;;;;;5094950;28;20187;-59
2020/12/09 06:24:23;;;;;;;51.35;26.60;;;2.70;99.90;;;;;;5095068;28;20156;-60
2020/12/09 06:26:49;;;;;;;47.72;26.63;;;2.60;99.90;;;;;;5094198;28;20209;-61
2020/12/09 06:29:21;;;;;;;50.78;26.42;;;2.60;99.90;;;;;;5094796;28;20213;-58
2020/12/09 06:31:58;;;;;;;47.33;25.73;;;2.60;99.90;;;;;;5094998;28;20156;-59
2020/12/09 06:34:24;;;;;;;52.00;27.25;;;2.60;99.90;;;;;;5094143;28;20159;-58
2020/12/09 06:37:10;;;;;;;45.20;25.05;;;2.60;99.90;;;;;;5094978;28;20167;-58
2020/12/09 06:39:36;;;;;;;48.28;25.88;;;2.50;99.90;;;;;;5095101;28;20151;-59
2020/12/09 06:42:06;;;;;;;44.22;24.58;;;2.50;99.90;;;;;;5094666;28;20740;-59
2020/12/09 06:44:33;;;;;;;48.67;25.63;;;2.40;99.90;;;;;;5095165;28;20603;-58
2020/12/09 06:46:59;;;;;;;46.42;24.95;;;2.40;99.90;;;;;;5093390;28;20241;-58
2020/12/09 06:49:27;;;;;;;44.78;25.55;;;2.40;99.90;;;;;;5094629;28;20596;-59
2020/12/09 06:51:57;;;;;;;45.67;25.00;;;2.40;99.90;;;;;;5094644;28;20174;-59
2020/12/09 06:54:39;;;;;;;46.30;25.98;;;2.30;99.90;;;;;;5094424;28;20160;-58
2020/12/09 06:57:26;;;;;;;46.72;24.35;;;2.30;99.90;;;;;;5094760;28;20186;-58
2020/12/09 07:00:17;;;;;;;43.75;23.33;;;2.30;99.90;;;;;;5094914;28;20172;-58
2020/12/09 07:02:44;;;;;;;41.60;23.02;;;2.20;99.90;;;;;;5094930;28;20156;-58
2020/12/09 07:05:14;;;;;;;45.97;24.83;;;2.20;99.90;;;;;;5094688;28;20171;-58
2020/12/09 07:07:45;;;;;;;44.08;24.95;;;2.20;99.90;;;;;;5094486;28;20497;-58
2020/12/09 07:10:19;;;;;;;41.63;23.25;;;2.20;99.90;;;;;;5094678;28;20166;-58
2020/12/09 07:12:46;;;;;;;44.13;23.67;;;2.20;99.90;;;;;;5094230;28;20672;-58
2020/12/09 07:15:12;;;;;;;46.63;24.05;;;2.20;99.90;;;;;;5094595;28;20236;-58
2020/12/09 07:17:38;;;;;;;47.20;25.40;;;2.10;99.90;;;;;;5094415;28;20164;-58
2020/12/09 07:20:04;;;;;;;41.47;23.75;;;2.10;99.90;;;;;;5094322;28;20164;-58
2020/12/09 07:22:29;;;;;;;45.47;25.80;;;2.10;99.90;;;;;;5094070;28;20183;-58
2020/12/09 07:24:56;;;;;;;45.88;25.05;;;2.10;99.90;;;;;;5094271;28;20171;-57
2020/12/09 07:27:25;;;;;;;43.63;24.48;;;2.10;99.90;;;;;;5094244;28;20160;-57
2020/12/09 07:29:54;;;;;;;46.78;25.25;;;2.10;99.90;;;;;;5094391;28;20187;-57
2020/12/09 07:32:21;;;;;;;45.05;24.55;;;2.10;99.90;;;;;;5094107;28;20703;-57
2020/12/09 07:34:57;;;;;;;45.88;24.70;;;2.00;99.90;;;;;;5094199;28;20599;-58
2020/12/09 07:37:26;;;;;;;45.55;24.50;;;2.00;99.90;;;;;;5095185;28;20185;-57
2020/12/09 07:39:53;;;;;;;43.92;24.58;;;2.00;99.90;;;;;;5097629;28;20494;-58
2020/12/09 07:42:21;;;;;;;46.53;24.73;;;2.00;99.90;;;;;;5097883;28;20520;-59
2020/12/09 07:44:47;;;;;;;49.40;24.77;;;2.00;99.90;;;;;;5097645;28;20163;-59
2020/12/09 07:47:12;;;;;;;43.92;24.83;;;1.90;99.90;;;;;;5097817;28;20305;-59
2020/12/09 07:49:49;;;;;;;42.42;25.27;;;2.00;99.90;;;;;;5097630;28;20250;-58
2020/12/09 07:52:19;;;;;;;41.20;24.30;;;2.00;99.90;;;;;;5097507;28;20160;-58
2020/12/09 07:54:45;;;;;;;48.40;25.27;;;2.00;99.90;;;;;;5097420;28;20477;-58
2020/12/09 07:57:10;;;;;;;46.65;24.40;;;2.00;99.90;;;;;;5097533;28;20164;-58
2020/12/09 07:59:36;;;;;;;43.35;24.42;;;2.00;99.90;;;;;;5097545;28;20224;-58
2020/12/09 08:02:21;;;;;;;47.50;25.08;;;1.90;99.90;;;;;;5097136;28;20280;-59
2020/12/09 08:05:08;;;;;;;43.65;24.95;;;2.00;99.90;;;;;;5097200;28;20187;-58
2020/12/09 08:07:33;;;;;;;46.28;24.67;;;2.00;99.90;;;;;;5097348;28;20170;-58
2020/12/09 08:10:07;;;;;;;43.92;24.67;;;2.00;99.90;;;;;;5097415;28;20159;-58
2020/12/09 08:12:35;;;;;;;46.20;24.63;;;2.00;99.90;;;;;;5097239;28;20165;-58
2020/12/09 08:15:01;;;;;;;42.58;25.13;;;2.00;99.90;;;;;;5097046;28;20164;-59
2020/12/09 08:17:28;;;;;;;46.33;25.55;;;2.00;99.90;;;;;;5096880;28;20170;-59
2020/12/09 08:20:03;;;;;;;43.40;25.50;;;2.10;99.90;;;;;;5096995;28;20209;-58
2020/12/09 08:22:30;;;;;;;44.15;24.83;;;2.10;99.90;;;;;;5096801;28;20194;-58
2020/12/09 08:25:07;;;;;;;44.42;25.48;;;2.10;99.90;;;;;;5096026;28;20216;-58
2020/12/09 08:27:40;;;;;;;47.65;26.48;;;2.10;99.90;;;;;;5097110;28;20162;-58
2020/12/09 08:30:21;;;;;;;43.63;25.25;;;2.10;99.90;;;;;;5097028;28;20156;-58
2020/12/09 08:32:53;;;;;;;43.80;24.95;;;2.10;99.90;;;;;;5097136;28;20159;-59
2020/12/09 08:35:18;;;;;;;46.83;24.85;;;2.10;99.90;;;;;;5096649;28;20622;-59
2020/12/09 08:37:44;;;;;;;41.67;23.83;;;2.00;99.90;;;;;;5096297;28;20159;-59
2020/12/09 08:40:09;;;;;;;44.50;25.15;;;2.00;99.90;;;;;;5095732;28;20164;-58
2020/12/09 08:42:35;;;;;;;44.50;25.45;;;2.00;99.90;;;;;;5096429;28;20188;-59
2020/12/09 08:45:00;;;;;;;47.20;25.60;;;1.90;99.90;;;;;;5096548;28;20264;-59
2020/12/09 08:47:26;;;;;;;45.45;25.00;;;2.00;99.90;;;;;;5096644;28;20526;-59
2020/12/09 08:49:51;;;;;;;48.60;25.48;;;2.00;99.90;;;;;;5095645;28;20227;-59
2020/12/09 08:52:17;;;;;;;42.40;24.75;;;1.90;99.90;;;;;;5096269;28;20233;-60
2020/12/09 08:54:42;;;;;;;43.10;24.35;;;1.90;99.90;;;;;;5096579;28;20167;-59
2020/12/09 08:57:08;;;;;;;49.47;25.50;;;1.90;99.90;;;;;;5096394;28;20159;-59
2020/12/09 08:59:33;;;;;;;46.25;26.33;;;1.90;99.90;;;;;;5096138;28;20186;-60
2020/12/09 09:01:59;;;;;;;44.20;25.23;;;1.90;99.90;;;;;;5096195;28;20195;-60
2020/12/09 09:04:32;;;;;;;45.05;24.92;;;2.00;99.90;;;;;;5096110;28;20191;-60
2020/12/09 09:06:58;;;;;;;45.30;25.50;;;1.90;99.90;;;;;;5096195;28;20569;-59
2020/12/09 09:09:23;;;;;;;48.40;26.77;;;1.90;99.90;;;;;;5096048;28;20191;-59
2020/12/09 09:11:49;;;;;;;45.65;25.85;;;2.00;99.90;;;;;;5096537;28;20242;-59
2020/12/09 09:14:15;;;;;;;48.60;27.33;;;2.00;99.90;;;;;;5098797;28;20163;-59
2020/12/09 09:16:41;;;;;;;46.92;26.92;;;1.90;99.90;;;;;;5101504;28;20160;-59
2020/12/09 09:19:06;;;;;;;47.70;25.90;;;2.00;99.90;;;;;;5098127;28;20166;-59
2020/12/09 09:21:33;;;;;;;47.70;26.20;;;2.00;99.90;;;;;;5104908;28;20516;-59
2020/12/09 09:23:58;;;;;;;45.10;26.35;;;2.00;99.90;;;;;;5102908;28;20258;-59
2020/12/09 09:26:24;;;;;;;45.17;25.83;;;2.00;99.90;;;;;;5101580;28;20159;-59
2020/12/09 09:28:50;;;;;;;45.90;25.23;;;2.00;99.90;;;;;;5108468;28;20159;-59
2020/12/09 09:31:15;;;;;;;43.92;25.33;;;2.10;99.90;;;;;;5106497;28;20514;-61
2020/12/09 09:33:41;;;;;;;48.03;26.13;;;2.00;99.90;;;;;;5094808;28;20174;-59
2020/12/09 09:36:06;;;;;;;41.97;24.27;;;2.00;99.90;;;;;;5095621;28;20595;-59
2020/12/09 09:38:32;;;;;;;41.45;24.13;;;2.00;99.90;;;;;;5095600;28;20178;-59
2020/12/09 09:40:57;;;;;;;46.63;25.50;;;2.10;99.90;;;;;;5095391;28;20272;-59
2020/12/09 09:43:23;;;;;;;49.50;25.15;;;2.10;99.90;;;;;;5095349;28;20182;-59
2020/12/09 09:45:49;;;;;;;48.17;26.15;;;2.10;99.90;;;;;;5095520;28;20623;-59
2020/12/09 09:48:15;;;;;;;45.53;25.77;;;2.10;99.90;;;;;;5095339;28;20244;-59
2020/12/09 09:50:40;;;;;;;45.85;26.70;;;2.10;99.90;;;;;;5095181;28;20163;-59
2020/12/09 09:53:06;;;;;;;46.33;25.65;;;2.10;99.90;;;;;;5095573;28;20205;-59
2020/12/09 09:55:31;;;;;;;47.88;26.67;;;2.10;99.90;;;;;;5095174;28;20160;-59
2020/12/09 09:57:57;;;;;;;48.13;26.50;;;2.10;99.90;;;;;;5095260;28;20570;-59
2020/12/09 10:00:22;;;;;;;49.72;26.77;;;2.20;99.90;;;;;;5095039;28;20167;-59
2020/12/09 10:02:48;;;;;;;47.90;25.40;;;2.20;99.90;;;;;;5095180;28;20175;-59
2020/12/09 10:05:13;;;;;;;50.47;26.02;;;2.20;99.90;;;;;;5095161;28;20163;-59
2020/12/09 10:07:39;;;;;;;49.65;26.83;;;2.30;99.90;;;;;;5095785;28;20159;-59
2020/12/09 10:10:04;;;;;;;49.08;25.45;;;2.30;99.90;;;;;;5094686;28;20611;-59
2020/12/09 10:12:31;;;;;;;43.75;24.42;;;2.30;99.90;;;;;;5094878;28;20489;-59
2020/12/09 10:14:57;;;;;;;50.63;26.60;;;2.30;99.90;;;;;;5094404;28;20209;-59
2020/12/09 10:17:22;;;;;;;44.67;26.10;;;2.30;99.90;;;;;;5095119;28;20155;-59
2020/12/09 10:19:48;;;;;;;48.92;26.90;;;2.30;99.90;;;;;;5096114;28;20167;-59
2020/12/09 10:22:13;;;;;;;50.33;26.05;;;2.40;99.90;;;;;;5104605;28;20256;-58
2020/12/09 10:24:39;;;;;;;43.08;26.02;;;2.40;99.90;;;;;;5106899;28;20503;-59
2020/12/09 10:27:04;;;;;;;47.40;25.52;;;2.50;99.90;;;;;;5106934;28;20189;-58
2020/12/09 10:29:30;;;;;;;46.97;25.60;;;2.50;99.90;;;;;;5106259;28;20218;-60
2020/12/09 10:31:55;;;;;;;46.88;26.17;;;2.60;99.90;;;;;;5106945;28;20201;-59
2020/12/09 10:34:21;;;;;;;49.83;26.35;;;2.60;99.90;;;;;;5107041;28;20301;-59
2020/12/09 10:36:49;;;;;;;48.13;26.67;;;2.60;99.90;;;;;;5106885;28;20179;-59
2020/12/09 10:39:19;;;;;;;46.58;26.00;;;2.60;99.90;;;;;;5106113;28;20506;-59
2020/12/09 10:41:45;;;;;;;41.85;24.55;;;2.60;99.90;;;;;;5106640;28;20235;-59
2020/12/09 10:44:11;;;;;;;45.67;26.33;;;2.60;99.90;;;;;;5104797;28;20170;-59
2020/12/09 10:46:37;;;;;;;47.78;26.27;;;2.60;99.90;;;;;;5104773;28;20180;-59
2020/12/09 10:49:04;;;;;;;48.67;27.33;;;2.60;99.90;;;;;;5106569;28;20164;-59
2020/12/09 10:51:30;;;;;;;44.95;26.13;;;2.70;99.90;;;;;;5106861;28;20250;-59
2020/12/09 10:53:56;;;;;;;45.42;26.20;;;2.70;99.90;;;;;;5105037;28;20178;-59
2020/12/09 10:56:30;;;;;;;47.58;26.60;;;2.70;99.90;;;;;;5107938;28;20182;-58
2020/12/09 10:58:57;;;;;;;49.17;25.92;;;2.70;99.90;;;;;;5106060;28;20237;-60
2020/12/09 11:01:25;;;;;;;47.60;26.70;;;2.70;99.90;;;;;;5104861;28;20207;-58
2020/12/09 11:03:51;;;;;;;44.63;25.67;;;2.70;99.90;;;;;;5105945;28;20156;-58
2020/12/09 11:06:16;;;;;;;47.92;27.05;;;2.70;99.90;;;;;;5105514;28;20183;-58
2020/12/09 11:08:42;;;;;;;44.00;25.80;;;2.70;99.90;;;;;;5103888;28;20246;-59
2020/12/09 11:11:08;;;;;;;46.72;26.73;;;2.70;99.90;;;;;;5097838;28;20574;-59
2020/12/09 11:13:34;;;;;;;49.97;27.42;;;2.70;99.90;;;;;;5099721;28;20184;-58
2020/12/09 11:15:59;;;;;;;48.78;26.05;;;2.70;99.90;;;;;;5098033;28;20172;-59
2020/12/09 11:18:25;;;;;;;47.58;26.40;;;2.80;99.90;;;;;;5097815;28;20225;-58
2020/12/09 11:20:51;;;;;;;50.92;27.45;;;2.80;99.90;;;;;;5097457;28;20198;-58
2020/12/09 11:23:16;;;;;;;50.50;26.88;;;2.80;99.90;;;;;;5097926;28;20274;-58
2020/12/09 11:25:42;;;;;;;46.30;26.77;;;2.90;99.90;;;;;;5098223;28;20163;-59
2020/12/09 11:28:07;;;;;;;44.47;25.85;;;2.90;99.90;;;;;;5098470;28;20171;-58
2020/12/09 11:30:33;;;;;;;48.08;27.13;;;2.90;99.90;;;;;;5098130;28;20178;-58
2020/12/09 11:32:59;;;;;;;50.03;26.55;;;3.00;99.90;;;;;;5098206;28;20478;-58
2020/12/09 11:35:25;;;;;;;47.28;25.70;;;3.00;99.90;;;;;;5097620;28;20220;-58
2020/12/09 11:37:50;;;;;;;47.08;25.85;;;3.00;99.90;;;;;;5097936;28;20171;-58
2020/12/09 11:40:16;;;;;;;48.25;26.35;;;3.00;99.90;;;;;;5097545;28;20164;-59
2020/12/09 11:42:41;;;;;;;44.97;26.50;;;2.90;99.90;;;;;;5097382;28;20206;-60
2020/12/09 11:45:07;;;;;;;47.90;26.85;;;3.00;99.90;;;;;;5095499;28;20211;-60
2020/12/09 11:47:34;;;;;;;52.03;26.65;;;3.00;99.90;;;;;;5095598;28;20162;-60
2020/12/09 11:50:00;;;;;;;47.33;27.77;;;2.90;99.90;;;;;;5094218;28;20168;-60
2020/12/09 11:52:25;;;;;;;47.38;26.67;;;3.00;99.90;;;;;;5094948;28;20167;-59
2020/12/09 11:54:51;;;;;;;46.75;25.65;;;3.00;99.90;;;;;;5095279;28;20171;-59
2020/12/09 11:57:16;;;;;;;45.95;25.95;;;3.00;99.90;;;;;;5095586;28;20540;-59
2020/12/09 11:59:42;;;;;;;50.20;26.42;;;3.00;99.90;;;;;;5096423;28;20185;-59
2020/12/09 12:02:07;;;;;;;49.22;27.40;;;3.10;99.90;;;;;;5096797;28;20200;-59
2020/12/09 12:04:33;;;;;;;47.22;26.63;;;3.10;99.90;;;;;;5097387;28;20171;-59
2020/12/09 12:06:58;;;;;;;47.20;26.00;;;3.10;99.90;;;;;;5097025;28;20461;-59
2020/12/09 12:09:24;;;;;;;45.53;25.85;;;3.20;99.90;;;;;;5097152;28;20178;-59
2020/12/09 12:11:49;;;;;;;47.38;26.40;;;3.20;99.90;;;;;;5097568;28;20160;-59
2020/12/09 12:14:15;;;;;;;49.75;26.65;;;3.20;99.90;;;;;;5097099;28;20164;-59
2020/12/09 12:16:40;;;;;;;47.33;25.52;;;3.20;99.90;;;;;;5097053;28;20163;-59
2020/12/09 12:19:06;;;;;;;51.65;25.92;;;3.20;99.90;;;;;;5097053;28;20548;-60
2020/12/09 12:21:32;;;;;;;44.75;26.73;;;3.30;99.90;;;;;;5096881;28;20187;-60
2020/12/09 12:23:57;;;;;;;47.22;26.95;;;3.20;99.90;;;;;;5094700;28;20163;-60
2020/12/09 12:26:23;;;;;;;46.97;25.98;;;3.20;99.90;;;;;;5096845;28;20156;-58
2020/12/09 12:28:49;;;;;;;48.38;27.08;;;3.30;99.90;;;;;;5096988;28;20191;-59
2020/12/09 12:31:17;;;;;;;46.17;25.52;;;3.30;99.90;;;;;;5096905;28;20179;-59
2020/12/09 12:33:42;;;;;;;45.42;26.00;;;3.30;99.90;;;;;;5097234;28;20266;-59
2020/12/09 12:36:08;;;;;;;47.95;27.13;;;3.40;99.90;;;;;;5096999;28;20250;-59
2020/12/09 12:38:34;;;;;;;44.42;25.17;;;3.40;99.90;;;;;;5097437;28;20184;-59